Date,TemperatureHighF,TemperatureAvgF,TemperatureLowF,DewpointHighF,DewpointAvgF,DewpointLowF,HumidityHigh,HumidityAvg,HumidityLow,PressureMaxIn,PressureMinIn,WindSpeedMaxMPH,WindSpeedAvgMPH,GustSpeedMaxMPH,PrecipitationSumIn
2013-3-1,35,31,26,31,24,17,93,77,60,30.00,28.88,12,5,12,0.00
2013-3-2,32,26,24,23,20,17,91,78,58,30.03,28.91,15,7,15,0.00
2013-3-3,31,25,18,20,16,10,88,69,51,30.03,28.91,14,4,14,0.00
2013-3-4,48,31,14,21,16,12,92,56,28,30.15,30.00,12,3,12,0.00
2013-3-5,40,35,30,33,24,18,98,65,49,30.06,29.56,17,7,17,0.00
2013-3-6,54,36,32,37,31,27,98,83,52,30.18,29.53,14,5,14,0.41
2013-3-7,48,36,31,30,27,23,85,71,50,30.33,30.15,14,6,14,0.12
2013-3-8,56,38,25,31,26,21,89,64,39,30.42,30.30,13,3,13,0.00
2013-3-9,58,43,26,36,28,22,91,60,38,30.36,30.09,14,6,14,0.00
2013-3-10,72,58,46,39,33,27,55,39,25,30.09,29.91,16,7,16,0.00
2013-3-11,62,52,41,52,41,33,97,68,36,29.91,29.62,28,8,28,0.21
2013-3-12,41,36,31,34,29,23,93,75,54,30.00,29.83,23,8,23,0.25
2013-3-13,34,30,26,32,22,14,98,72,53,30.21,29.12,26,11,26,0.00
2013-3-14,45,32,21,20,16,12,76,54,38,30.27,30.12,18,7,18,0.00
2013-3-15,52,39,27,41,27,14,97,64,49,30.12,29.85,14,5,14,0.04
2013-3-16,56,42,33,47,39,31,98,91,71,29.94,29.65,20,7,20,0.13
2013-3-17,41,34,32,31,27,21,92,76,52,30.15,29.06,15,7,15,0.00
2013-3-18,50,39,31,49,38,23,98,93,70,30.06,29.62,25,8,25,0.21
2013-3-19,40,35,29,36,22,14,94,60,42,30.00,29.77,31,14,31,0.04
2013-3-20,40,31,22,19,13,7,53,47,42,30.00,29.88,24,12,24,0.00
2013-3-21,33,24,17,19,12,6,80,59,44,29.97,29.85,16,8,16,0.00
2013-3-22,45,32,20,22,16,11,78,53,38,30.03,28.91,15,5,15,0.00
2013-3-23,55,36,21,27,19,11,72,51,31,30.06,29.97,13,3,13,0.00
2013-3-24,36,33,30,32,24,18,97,69,50,29.97,29.47,20,8,20,0.00
2013-3-25,40,34,32,33,31,29,98,91,70,29.83,29.41,14,5,14,0.00
2013-3-26,44,36,32,32,28,19,97,73,45,30.15,29.83,22,9,22,0.00
2013-3-27,46,37,32,30,25,20,92,63,42,30.24,30.12,24,11,24,0.00
2013-3-28,53,39,28,28,24,20,77,55,38,30.27,29.18,23,7,23,0.00
2013-3-29,57,42,26,31,25,20,86,54,35,30.30,30.18,18,4,18,0.00
2013-3-30,64,45,26,34,25,20,88,52,25,30.21,29.94,13,3,13,0.00
2013-3-31,56,47,42,47,37,22,95,70,44,29.97,29.77,17,5,17,0.08